createdAt,value
2022-10-26T00:01:08.918Z,10.24
2022-10-26T00:03:42.917Z,10.12
2022-10-26T00:06:16.018Z,10.07
2022-10-26T00:08:46.848Z,10.14
2022-10-26T00:11:18.799Z,10.10
2022-10-26T00:13:49.509Z,10.03
2022-10-26T00:16:22.600Z,9.95
2022-10-26T00:18:53.262Z,9.90
2022-10-26T00:21:23.249Z,9.84
2022-10-26T00:23:53.612Z,9.76
2022-10-26T00:26:25.021Z,9.73
2022-10-26T00:28:57.450Z,9.72
2022-10-26T00:31:27.657Z,9.75
2022-10-26T00:33:58.539Z,9.75
2022-10-26T00:36:28.887Z,9.84
2022-10-26T00:38:59.689Z,9.96
2022-10-26T00:41:33.159Z,9.97
2022-10-26T00:44:24.037Z,9.92
2022-10-26T00:46:54.347Z,9.91
2022-10-26T00:49:24.690Z,9.99
2022-10-26T00:51:56.219Z,10.21
2022-10-26T00:54:26.619Z,10.23
2022-10-26T00:56:58.277Z,10.37
2022-10-26T00:59:28.968Z,10.43
2022-10-26T01:01:58.907Z,10.52
2022-10-26T01:04:29.167Z,10.29
2022-10-26T01:06:59.481Z,10.65
2022-10-26T01:09:29.851Z,10.63
2022-10-26T01:12:02.386Z,10.70
2022-10-26T01:14:33.859Z,10.71
2022-10-26T01:17:16.344Z,10.76
2022-10-26T01:20:12.487Z,10.73
2022-10-26T01:22:49.829Z,10.74
2022-10-26T01:25:37.597Z,10.83
2022-10-26T01:28:17.797Z,10.93
2022-10-26T01:30:50.337Z,10.93
2022-10-26T01:33:39.848Z,10.91
2022-10-26T01:36:15.316Z,10.93
2022-10-26T01:38:54.307Z,10.92
2022-10-26T01:41:29.928Z,10.92
2022-10-26T01:44:04.395Z,10.92
2022-10-26T01:46:41.378Z,10.92
2022-10-26T01:49:13.968Z,10.92
2022-10-26T01:51:46.597Z,10.93
2022-10-26T01:54:16.551Z,10.92
2022-10-26T01:56:49.527Z,10.88
2022-10-26T01:59:39.737Z,10.81
2022-10-26T02:02:48.818Z,10.88
2022-10-26T02:05:47.957Z,10.85
2022-10-26T02:08:40.265Z,10.76
2022-10-26T02:11:21.789Z,10.64
2022-10-26T02:13:54.650Z,10.60
2022-10-26T02:16:27.910Z,10.52
2022-10-26T02:19:04.730Z,10.48
2022-10-26T02:21:40.922Z,10.44
2022-10-26T02:24:15.432Z,10.40
2022-10-26T02:26:48.899Z,10.32
2022-10-26T02:29:22.216Z,10.27
2022-10-26T02:31:53.457Z,10.44
2022-10-26T02:34:27.369Z,10.34
2022-10-26T02:37:02.557Z,10.27
2022-10-26T02:39:35.599Z,10.36
2022-10-26T02:42:08.039Z,10.37
2022-10-26T02:44:44.099Z,10.40
2022-10-26T02:47:14.639Z,10.43
2022-10-26T02:49:46.539Z,10.41
2022-10-26T02:52:22.849Z,10.48
2022-10-26T02:54:59.349Z,10.49
2022-10-26T02:57:34.760Z,10.56
2022-10-26T03:00:06.158Z,10.53
2022-10-26T03:02:36.199Z,10.49
2022-10-26T03:05:17.149Z,10.41
2022-10-26T03:07:47.316Z,10.44
2022-10-26T03:10:18.560Z,10.41
2022-10-26T03:12:49.026Z,10.38
2022-10-26T03:15:19.667Z,10.32
2022-10-26T03:17:50.018Z,10.27
2022-10-26T03:20:21.959Z,10.34
2022-10-26T03:22:51.887Z,10.41
2022-10-26T03:25:22.157Z,10.36
2022-10-26T03:27:59.747Z,10.32
2022-10-26T03:30:31.359Z,10.37
2022-10-26T03:33:01.429Z,10.33
2022-10-26T03:35:33.209Z,10.30
2022-10-26T03:38:02.806Z,10.24
2022-10-26T03:40:32.881Z,10.17
2022-10-26T03:43:02.877Z,10.19
2022-10-26T03:45:33.059Z,10.27
2022-10-26T03:48:03.072Z,10.25
2022-10-26T03:50:34.788Z,10.24
2022-10-26T03:53:04.768Z,10.21
2022-10-26T03:55:35.028Z,10.17
2022-10-26T03:58:05.001Z,10.15
2022-10-26T04:00:35.249Z,10.07
2022-10-26T04:03:05.309Z,9.97
2022-10-26T04:05:36.997Z,9.98
2022-10-26T04:08:06.960Z,10.07
2022-10-26T04:10:37.218Z,10.08
2022-10-26T04:13:07.387Z,10.11
2022-10-26T04:15:37.649Z,10.24
2022-10-26T04:18:07.645Z,10.28
2022-10-26T04:20:39.489Z,10.36
2022-10-26T04:23:09.729Z,10.34
2022-10-26T04:25:39.980Z,10.32
2022-10-26T04:28:11.417Z,10.36
2022-10-26T04:30:42.210Z,10.35
2022-10-26T04:33:12.229Z,10.39
2022-10-26T04:35:45.858Z,10.46
2022-10-26T04:38:15.847Z,10.39
2022-10-26T04:40:46.069Z,10.41
2022-10-26T04:43:15.987Z,10.47
2022-10-26T04:45:46.299Z,10.48
2022-10-26T04:48:16.655Z,10.56
2022-10-26T04:50:48.238Z,10.61
2022-10-26T04:53:18.259Z,10.64
2022-10-26T04:55:48.540Z,10.65
2022-10-26T04:58:18.409Z,10.65
2022-10-26T05:00:48.711Z,10.64
2022-10-26T05:03:18.768Z,10.66
2022-10-26T05:05:50.479Z,10.66
2022-10-26T05:08:20.464Z,10.64
2022-10-26T05:10:51.560Z,10.68
2022-10-26T05:13:21.535Z,10.69
2022-10-26T05:15:54.579Z,10.62
2022-10-26T05:18:24.537Z,10.61
2022-10-26T05:20:57.197Z,10.62
2022-10-26T05:23:27.173Z,10.58
2022-10-26T05:25:58.559Z,10.65
2022-10-26T05:28:28.619Z,10.52
2022-10-26T05:31:01.509Z,10.47
2022-10-26T05:33:31.558Z,10.44
2022-10-26T05:36:03.389Z,10.46
2022-10-26T05:38:33.428Z,10.43
2022-10-26T05:41:03.669Z,10.43
2022-10-26T05:43:33.650Z,10.44
2022-10-26T05:46:04.999Z,10.41
2022-10-26T05:48:34.817Z,10.36
2022-10-26T05:51:06.909Z,10.30
2022-10-26T05:53:36.784Z,10.24
2022-10-26T05:56:18.890Z,10.20
2022-10-26T05:58:49.739Z,10.15
2022-10-26T06:01:30.477Z,10.10
2022-10-26T06:04:21.061Z,10.03
2022-10-26T06:06:56.869Z,9.92
2022-10-26T06:09:27.669Z,9.92
2022-10-26T06:11:59.228Z,9.85
2022-10-26T06:14:29.840Z,9.83
2022-10-26T06:17:28.307Z,9.79
2022-10-26T06:20:10.521Z,9.78
2022-10-26T06:23:01.469Z,9.80
2022-10-26T06:25:44.819Z,9.77
2022-10-26T06:28:30.169Z,9.76
2022-10-26T06:31:01.007Z,9.76
2022-10-26T06:33:33.112Z,9.76
2022-10-26T06:36:18.747Z,9.71
2022-10-26T06:38:54.577Z,9.79
2022-10-26T06:41:27.458Z,9.80
2022-10-26T06:43:58.679Z,9.78
2022-10-26T06:46:38.269Z,9.87
2022-10-26T06:49:21.320Z,9.98
2022-10-26T06:51:59.037Z,10.03
2022-10-26T06:54:45.205Z,10.14
2022-10-26T06:57:17.723Z,10.22
2022-10-26T06:59:53.116Z,10.23
2022-10-26T07:02:24.052Z,10.26
2022-10-26T07:04:56.300Z,10.34
2022-10-26T07:07:29.061Z,11.61
2022-10-26T07:10:02.286Z,12.63
2022-10-26T07:12:33.178Z,13.31
2022-10-26T07:15:03.984Z,13.75
2022-10-26T07:17:44.099Z,12.62
2022-10-26T07:20:15.179Z,12.03
2022-10-26T07:22:45.167Z,11.91
2022-10-26T07:25:17.578Z,11.96
2022-10-26T07:27:48.114Z,12.09
2022-10-26T07:30:19.029Z,13.06
2022-10-26T07:32:49.549Z,13.75
2022-10-26T07:35:20.037Z,14.57
2022-10-26T07:37:50.078Z,14.94
2022-10-26T07:42:52.117Z,15.60
2022-10-26T07:45:22.797Z,15.78
2022-10-26T07:47:52.805Z,15.75
2022-10-26T07:50:23.248Z,15.87
2022-10-26T07:52:53.490Z,15.92
2022-10-26T07:55:25.437Z,15.96
2022-10-26T07:57:57.730Z,16.13
2022-10-26T08:00:29.065Z,16.41
2022-10-26T08:02:59.235Z,16.23
2022-10-26T08:05:29.676Z,16.08
2022-10-26T08:07:59.743Z,16.11
2022-10-26T08:10:31.457Z,16.97
2022-10-26T08:13:01.541Z,16.60
2022-10-26T08:15:31.747Z,16.76
2022-10-26T08:18:01.866Z,17.05
2022-10-26T08:20:32.275Z,17.22
2022-10-26T08:23:04.326Z,16.90
2022-10-26T08:25:36.237Z,16.13
2022-10-26T08:28:07.024Z,16.70
2022-10-26T08:30:38.007Z,16.67
2022-10-26T08:33:10.082Z,17.17
2022-10-26T08:35:40.406Z,16.94
2022-10-26T08:38:10.776Z,16.64
2022-10-26T08:40:44.796Z,16.87
2022-10-26T08:43:25.564Z,16.91
2022-10-26T08:46:01.590Z,16.81
2022-10-26T08:48:36.122Z,16.35
2022-10-26T08:51:13.393Z,15.77
2022-10-26T08:53:49.443Z,15.79
2022-10-26T08:56:25.332Z,15.17
2022-10-26T08:59:00.146Z,14.52
2022-10-26T09:01:33.870Z,14.11
2022-10-26T09:04:05.654Z,14.31
2022-10-26T09:06:45.713Z,13.88
2022-10-26T09:09:21.945Z,13.94
2022-10-26T09:12:04.531Z,13.68
2022-10-26T09:14:43.907Z,13.51
2022-10-26T09:17:24.623Z,13.42
2022-10-26T09:20:26.933Z,13.38
2022-10-26T09:23:04.075Z,13.34
2022-10-26T09:25:39.938Z,13.19
2022-10-26T09:28:19.191Z,13.32
2022-10-26T09:30:50.201Z,13.63
2022-10-26T09:33:24.276Z,13.67
2022-10-26T09:35:59.494Z,14.36
2022-10-26T09:38:34.819Z,14.26
2022-10-26T09:41:11.883Z,14.41
2022-10-26T09:43:51.681Z,14.94
2022-10-26T09:46:26.728Z,15.13
2022-10-26T09:49:00.805Z,14.66
2022-10-26T09:51:30.800Z,14.75
2022-10-26T09:54:03.004Z,14.75
2022-10-26T09:56:33.379Z,15.10
2022-10-26T09:59:07.648Z,14.93
2022-10-26T10:01:42.181Z,15.24
2022-10-26T10:04:21.550Z,15.50
2022-10-26T10:06:52.781Z,15.24
2022-10-26T10:09:25.040Z,15.10
2022-10-26T10:11:57.509Z,14.82
2022-10-26T10:14:33.476Z,14.52
2022-10-26T10:17:10.092Z,14.40
2022-10-26T10:19:41.400Z,14.38
2022-10-26T10:22:14.621Z,14.30
2022-10-26T10:24:55.287Z,14.30
2022-10-26T10:27:25.925Z,14.45
2022-10-26T10:30:03.219Z,14.58
2022-10-26T10:32:38.736Z,14.69
2022-10-26T10:35:30.871Z,14.74
2022-10-26T10:38:01.299Z,14.78
2022-10-26T10:40:33.667Z,14.77
2022-10-26T10:43:13.158Z,14.88
2022-10-26T10:45:50.228Z,14.88
2022-10-26T10:48:22.264Z,15.08
2022-10-26T10:50:59.527Z,14.89
2022-10-26T10:53:39.888Z,14.99
2022-10-26T10:56:25.188Z,15.06
2022-10-26T10:59:09.227Z,15.09
2022-10-26T11:01:52.876Z,15.05
2022-10-26T11:04:52.759Z,14.88
2022-10-26T11:07:26.033Z,15.02
2022-10-26T11:09:59.831Z,15.06
2022-10-26T11:15:13.467Z,15.12
2022-10-26T11:17:54.497Z,15.07
2022-10-26T11:20:28.506Z,15.18
2022-10-26T11:23:06.889Z,14.83
2022-10-26T11:25:43.279Z,14.69
2022-10-26T11:28:19.339Z,14.71
2022-10-26T11:30:58.487Z,14.65
2022-10-26T11:33:36.237Z,14.54
2022-10-26T11:36:09.950Z,14.26
2022-10-26T11:38:56.366Z,14.07
2022-10-26T11:41:32.947Z,14.08
2022-10-26T11:44:12.198Z,14.04
2022-10-26T11:46:46.780Z,14.07
2022-10-26T11:49:25.428Z,13.99
2022-10-26T11:52:00.479Z,14.04
2022-10-26T11:54:37.249Z,14.02
2022-10-26T11:57:08.468Z,14.02
2022-10-26T11:59:40.738Z,14.08
2022-10-26T12:02:18.047Z,14.09
2022-10-26T12:04:56.419Z,14.07
2022-10-26T12:07:31.642Z,14.05
2022-10-26T12:10:04.298Z,14.01
2022-10-26T12:12:42.419Z,14.03
2022-10-26T12:15:30.724Z,14.13
2022-10-26T12:18:20.246Z,14.19
2022-10-26T12:21:04.438Z,14.17
2022-10-26T12:23:40.895Z,14.01
2022-10-26T12:26:55.233Z,13.87
2022-10-26T12:29:37.262Z,13.86
2022-10-26T12:32:49.961Z,13.82
2022-10-26T12:35:45.942Z,13.76
2022-10-26T12:39:01.270Z,13.77
2022-10-26T12:41:33.522Z,13.79
2022-10-26T12:44:34.219Z,13.78
2022-10-26T12:47:04.851Z,13.82
2022-10-26T12:50:06.106Z,13.81
2022-10-26T12:52:58.189Z,13.85
2022-10-26T12:56:03.331Z,13.92
2022-10-26T12:59:14.793Z,13.95
2022-10-26T13:02:11.553Z,14.01
2022-10-26T13:04:59.760Z,13.98
2022-10-26T13:07:37.956Z,14.00
2022-10-26T13:10:19.999Z,13.97
2022-10-26T13:12:55.163Z,14.16
2022-10-26T13:15:28.912Z,14.19
2022-10-26T13:18:04.001Z,14.08
2022-10-26T13:20:35.940Z,14.01
2022-10-26T13:23:22.051Z,13.97
2022-10-26T13:26:09.705Z,14.08
2022-10-26T13:28:51.176Z,13.84
2022-10-26T13:31:55.217Z,13.62
2022-10-26T13:34:29.585Z,13.69
2022-10-26T13:37:13.786Z,13.62
2022-10-26T13:39:47.326Z,13.60
2022-10-26T13:42:19.834Z,13.67
2022-10-26T13:44:55.953Z,13.62
2022-10-26T13:47:30.174Z,13.54
2022-10-26T13:50:06.044Z,13.53
2022-10-26T13:52:41.419Z,13.52
2022-10-26T13:55:21.605Z,13.50
2022-10-26T13:58:16.766Z,13.51
2022-10-26T14:01:04.585Z,13.49
2022-10-26T14:03:35.749Z,13.53
2022-10-26T14:06:08.532Z,13.54
2022-10-26T14:08:42.355Z,13.54
2022-10-26T14:11:16.955Z,13.52
2022-10-26T14:13:50.615Z,13.50
2022-10-26T14:16:26.913Z,13.47
2022-10-26T14:18:57.135Z,13.47
2022-10-26T14:21:27.653Z,13.43
2022-10-26T14:24:00.519Z,13.39
2022-10-26T14:26:35.615Z,13.37
2022-10-26T14:29:05.635Z,13.34
2022-10-26T14:31:38.865Z,13.30
2022-10-26T14:34:13.111Z,13.32
2022-10-26T14:36:48.778Z,13.32
2022-10-26T14:39:30.336Z,13.31
2022-10-26T14:42:05.009Z,13.28
2022-10-26T14:44:41.648Z,13.24
2022-10-26T14:47:25.343Z,13.16
2022-10-26T14:49:55.935Z,13.13
2022-10-26T14:52:31.063Z,13.09
2022-10-26T14:55:03.202Z,13.09
2022-10-26T14:57:40.786Z,13.10
2022-10-26T15:00:19.614Z,13.09
2022-10-26T15:02:57.756Z,13.09
2022-10-26T15:05:35.804Z,13.09
2022-10-26T15:08:07.702Z,13.09
2022-10-26T15:10:51.983Z,13.08
2022-10-26T15:13:28.533Z,12.98
2022-10-26T15:16:11.959Z,12.86
2022-10-26T15:18:49.675Z,12.77
2022-10-26T15:21:28.563Z,12.70
2022-10-26T15:24:06.374Z,12.67
2022-10-26T15:26:49.800Z,12.42
2022-10-26T15:29:43.909Z,12.50
2022-10-26T15:32:33.164Z,12.46
2022-10-26T15:35:34.140Z,12.39
2022-10-26T15:38:05.349Z,12.34
2022-10-26T15:40:37.398Z,12.26
2022-10-26T15:43:07.558Z,12.13
2022-10-26T15:45:48.300Z,12.03
2022-10-26T15:48:25.888Z,11.99
2022-10-26T15:50:58.080Z,11.80
2022-10-26T15:53:29.196Z,11.60
2022-10-26T15:56:01.309Z,11.48
2022-10-26T15:58:33.488Z,11.38
2022-10-26T16:01:03.962Z,11.26
2022-10-26T16:03:34.210Z,11.14
2022-10-26T16:06:07.009Z,11.06
2022-10-26T16:08:37.008Z,10.96
2022-10-26T16:11:07.558Z,10.92
2022-10-26T16:13:37.624Z,10.84
2022-10-26T16:16:14.336Z,10.89
2022-10-26T16:18:44.877Z,10.87
2022-10-26T16:21:18.462Z,10.91
2022-10-26T16:23:49.896Z,10.93
2022-10-26T16:26:20.930Z,10.93
2022-10-26T16:28:51.368Z,10.98
2022-10-26T16:31:22.718Z,11.05
2022-10-26T16:33:52.840Z,11.10
2022-10-26T16:36:25.654Z,11.14
2022-10-26T16:38:59.601Z,11.09
2022-10-26T16:41:32.970Z,11.09
2022-10-26T16:44:03.770Z,11.11
2022-10-26T16:46:34.865Z,11.12
2022-10-26T16:49:08.338Z,11.15
2022-10-26T16:51:43.790Z,11.11
2022-10-26T16:54:15.860Z,11.05
2022-10-26T16:56:47.628Z,10.97
2022-10-26T16:59:19.559Z,11.00
2022-10-26T17:01:52.550Z,10.96
2022-10-26T17:04:24.634Z,10.91
2022-10-26T17:06:59.590Z,10.85
2022-10-26T17:09:32.750Z,10.82
2022-10-26T17:12:03.429Z,10.75
2022-10-26T17:14:33.499Z,10.69
2022-10-26T17:17:06.346Z,10.62
2022-10-26T17:19:40.631Z,10.57
2022-10-26T17:22:18.095Z,10.57
2022-10-26T17:24:51.380Z,10.45
2022-10-26T17:27:24.443Z,10.20
2022-10-26T17:29:55.005Z,9.98
2022-10-26T17:32:27.181Z,9.85
2022-10-26T17:34:59.620Z,9.82
2022-10-26T17:37:33.303Z,9.64
2022-10-26T17:40:05.017Z,9.54
2022-10-26T17:42:36.515Z,9.50
2022-10-26T17:45:07.230Z,9.38
2022-10-26T17:47:37.519Z,9.19
2022-10-26T17:50:10.203Z,9.11
2022-10-26T17:52:43.888Z,9.07
2022-10-26T17:55:20.593Z,8.95
2022-10-26T17:57:51.467Z,8.80
2022-10-26T18:00:21.917Z,8.75
2022-10-26T18:02:52.641Z,8.63
2022-10-26T18:05:22.918Z,8.55
2022-10-26T18:07:54.589Z,8.61
2022-10-26T18:10:37.587Z,8.50
2022-10-26T18:13:08.791Z,8.43
2022-10-26T18:15:39.795Z,8.41
2022-10-26T18:18:10.310Z,8.44
2022-10-26T18:20:41.061Z,8.49
2022-10-26T18:23:14.219Z,8.52
2022-10-26T18:25:46.458Z,8.53
2022-10-26T18:28:22.072Z,8.34
2022-10-26T18:30:55.464Z,8.20
2022-10-26T18:33:27.486Z,8.12
2022-10-26T18:36:05.822Z,7.97
2022-10-26T18:38:42.702Z,7.97
2022-10-26T18:41:17.225Z,7.97
2022-10-26T18:43:53.556Z,7.96
2022-10-26T18:46:28.028Z,7.83
2022-10-26T18:49:01.097Z,7.99
2022-10-26T18:51:35.566Z,8.36
2022-10-26T18:54:09.785Z,8.62
2022-10-26T18:56:41.468Z,8.57
2022-10-26T18:59:11.335Z,8.58
2022-10-26T19:01:43.012Z,8.53
2022-10-26T19:04:15.525Z,8.43
2022-10-26T19:06:49.055Z,8.34
2022-10-26T19:09:22.722Z,8.29
2022-10-26T19:11:53.886Z,8.26
2022-10-26T19:14:26.463Z,8.25
2022-10-26T19:16:57.424Z,8.22
2022-10-26T19:19:28.177Z,8.12
2022-10-26T19:21:59.687Z,8.12
2022-10-26T19:24:31.706Z,8.09
2022-10-26T19:27:01.363Z,8.05
2022-10-26T19:29:32.085Z,8.04
2022-10-26T19:32:03.753Z,8.02
2022-10-26T19:34:35.484Z,8.02
2022-10-26T19:37:05.893Z,7.95
2022-10-26T19:39:38.357Z,7.86
2022-10-26T19:42:08.764Z,7.71
2022-10-26T19:44:38.993Z,7.57
2022-10-26T19:47:09.758Z,7.49
2022-10-26T19:49:40.223Z,7.56
2022-10-26T19:52:10.493Z,7.52
2022-10-26T19:54:42.334Z,7.45
2022-10-26T19:57:12.056Z,7.43
2022-10-26T19:59:42.296Z,7.35
2022-10-26T20:02:12.263Z,7.36
2022-10-26T20:04:42.473Z,7.43
2022-10-26T20:07:12.644Z,7.48
2022-10-26T20:09:44.435Z,7.45
2022-10-26T20:12:14.714Z,7.35
2022-10-26T20:14:45.153Z,7.30
2022-10-26T20:17:15.264Z,7.27
2022-10-26T20:19:46.955Z,7.25
2022-10-26T20:22:16.961Z,7.25
2022-10-26T20:24:48.644Z,7.23
2022-10-26T20:27:18.565Z,7.05
2022-10-26T20:29:48.656Z,7.11
2022-10-26T20:32:18.933Z,7.08
2022-10-26T20:34:50.056Z,7.07
2022-10-26T20:37:20.614Z,7.12
2022-10-26T20:39:53.294Z,7.04
2022-10-26T20:42:25.934Z,6.96
2022-10-26T20:45:03.853Z,6.76
2022-10-26T20:47:34.385Z,6.68
2022-10-26T20:50:05.273Z,6.65
2022-10-26T20:52:43.947Z,6.64
2022-10-26T20:55:25.705Z,6.69
2022-10-26T20:57:59.845Z,6.75
2022-10-26T21:00:34.052Z,6.69
2022-10-26T21:03:04.205Z,6.67
2022-10-26T21:05:34.869Z,6.84
2022-10-26T21:08:04.919Z,6.83
2022-10-26T21:10:36.597Z,6.69
2022-10-26T21:13:11.447Z,6.63
2022-10-26T21:15:47.537Z,6.52
2022-10-26T21:18:17.762Z,6.56
2022-10-26T21:20:47.901Z,6.49
2022-10-26T21:23:17.918Z,6.51
2022-10-26T21:25:49.651Z,6.37
2022-10-26T21:28:20.709Z,6.19
2022-10-26T21:30:51.119Z,6.19
2022-10-26T21:33:24.013Z,6.20
2022-10-26T21:35:56.009Z,6.26
2022-10-26T21:38:26.307Z,6.17
2022-10-26T21:41:06.897Z,6.08
2022-10-26T21:43:38.009Z,6.03
2022-10-26T21:46:09.467Z,6.01
2022-10-26T21:48:41.310Z,5.96
2022-10-26T21:51:14.730Z,6.02
2022-10-26T21:53:45.167Z,6.15
2022-10-26T21:56:19.789Z,6.11
2022-10-26T21:58:50.542Z,6.09
2022-10-26T22:01:22.614Z,6.13
2022-10-26T22:03:52.889Z,6.16
2022-10-26T22:06:24.861Z,6.17
2022-10-26T22:08:55.329Z,6.19
2022-10-26T22:11:27.589Z,6.19
2022-10-26T22:13:57.577Z,6.23
2022-10-26T22:16:29.279Z,6.24
2022-10-26T22:19:03.915Z,6.27
2022-10-26T22:21:37.727Z,6.25
2022-10-26T22:24:09.011Z,6.13
2022-10-26T22:26:41.138Z,6.10
2022-10-26T22:29:11.741Z,5.99
2022-10-26T22:31:42.859Z,5.94
2022-10-26T22:34:17.332Z,5.96
2022-10-26T22:36:47.658Z,5.95
2022-10-26T22:39:18.138Z,5.88
2022-10-26T22:41:50.631Z,5.76
2022-10-26T22:44:20.555Z,5.76
2022-10-26T22:46:50.980Z,5.84
2022-10-26T22:49:21.181Z,5.89
2022-10-26T22:51:51.663Z,5.86
2022-10-26T22:54:21.822Z,5.86
2022-10-26T22:56:53.559Z,5.75
2022-10-26T22:59:23.191Z,5.71
2022-10-26T23:01:53.580Z,5.72
2022-10-26T23:04:23.702Z,5.72
2022-10-26T23:06:54.471Z,5.81
2022-10-26T23:09:24.420Z,5.65
2022-10-26T23:11:56.382Z,5.64
2022-10-26T23:14:26.569Z,5.59
2022-10-26T23:16:56.889Z,5.61
2022-10-26T23:19:26.823Z,5.63
2022-10-26T23:21:57.081Z,5.65
2022-10-26T23:24:26.970Z,5.69
2022-10-26T23:26:58.641Z,5.89
2022-10-26T23:29:28.681Z,6.02
2022-10-26T23:31:59.062Z,6.13
2022-10-26T23:34:28.980Z,6.17
2022-10-26T23:36:59.122Z,6.10
2022-10-26T23:39:29.161Z,6.08
2022-10-26T23:42:00.921Z,6.14
2022-10-26T23:44:30.889Z,6.16
2022-10-26T23:47:01.132Z,6.14
2022-10-26T23:49:31.121Z,6.19
2022-10-26T23:52:01.352Z,6.24
2022-10-26T23:54:31.671Z,6.34
2022-10-26T23:57:03.371Z,6.35
2022-10-26T23:59:33.342Z,6.36
